UAE7MY OMDB-YPPH
Flight info
| Callsign | UAE7MY |
|---|---|
| Flight time | N/A |
| Altitude | 37000 |
| Route | ANVIX L223 TARDI N629 GIDAN P570 KITAL L894 BIBGO DCT LAVOX/N0489F390 DCT KADAP DCT 0500S08730E DCT BEBIM DCT 15S100E/N0480F410 18S105E DCT WONSA DCT CAR B469 TOPIR/N0480F400 L514 AVPAL Q38 JULIM |
| Aircraft | A359/H-SDE2E3GHIJ3J4J5LM1ORWXY/LB1D1 |
Departure
| Time | 2026-04-21 22:52 |
|---|---|
| Airport | Dubai International Airport (OMDB) |
Arrival
| Time | N/A |
|---|---|
| Airport | Perth International Airport (YPPH) |
| Time | Latitude | Longitude | Altitude | Speed | Heading |
|---|---|---|---|---|---|
| 2026-04-21 22:32 | 25.24065 | 55.37488 | 27 ft | 0 kts | 355° |
| 2026-04-21 22:39 | 25.24055 | 55.37489 | 26 ft | 4 kts | 355° |
| 2026-04-21 22:39 | 25.24029 | 55.37491 | 25 ft | 3 kts | 355° |
| 2026-04-21 22:40 | 25.24006 | 55.37491 | 25 ft | 4 kts | 26° |
| 2026-04-21 22:40 | 25.23988 | 55.37472 | 24 ft | 4 kts | 67° |
| 2026-04-21 22:40 | 25.23982 | 55.37444 | 25 ft | 4 kts | 91° |
| 2026-04-21 22:40 | 25.23987 | 55.37417 | 24 ft | 4 kts | 122° |
| 2026-04-21 22:41 | 25.24002 | 55.37392 | 25 ft | 3 kts | 122° |
| 2026-04-21 22:41 | 25.24004 | 55.37388 | 25 ft | 0 kts | 122° |
| 2026-04-21 22:44 | 25.24003 | 55.37389 | 25 ft | 0 kts | 122° |
| 2026-04-21 22:44 | 25.23989 | 55.37414 | 24 ft | 7 kts | 122° |
| 2026-04-21 22:45 | 25.23965 | 55.37486 | 26 ft | 12 kts | 97° |
| 2026-04-21 22:45 | 25.23988 | 55.37571 | 27 ft | 12 kts | 56° |
| 2026-04-21 22:45 | 25.24050 | 55.37632 | 27 ft | 12 kts | 35° |
| 2026-04-21 22:45 | 25.24122 | 55.37681 | 27 ft | 12 kts | 31° |
| 2026-04-21 22:46 | 25.24196 | 55.37730 | 27 ft | 11 kts | 31° |
| 2026-04-21 22:46 | 25.24265 | 55.37776 | 27 ft | 12 kts | 31° |
| 2026-04-21 22:46 | 25.24294 | 55.37841 | 28 ft | 10 kts | 95° |
| 2026-04-21 22:46 | 25.24266 | 55.37898 | 28 ft | 9 kts | 123° |
| 2026-04-21 22:47 | 25.24234 | 55.37955 | 28 ft | 9 kts | 122° |
| 2026-04-21 22:47 | 25.24204 | 55.38016 | 28 ft | 9 kts | 107° |
| 2026-04-21 22:47 | 25.24220 | 55.38062 | 29 ft | 5 kts | 35° |
| 2026-04-21 22:47 | 25.24257 | 55.38088 | 30 ft | 8 kts | 33° |
| 2026-04-21 22:48 | 25.24314 | 55.38128 | 32 ft | 11 kts | 29° |
| 2026-04-21 22:48 | 25.24360 | 55.38157 | 32 ft | 11 kts | 30° |
| 2026-04-21 22:48 | 25.24400 | 55.38183 | 31 ft | 6 kts | 30° |
| 2026-04-21 22:48 | 25.24449 | 55.38217 | 29 ft | 10 kts | 32° |
| 2026-04-21 22:49 | 25.24513 | 55.38260 | 28 ft | 11 kts | 32° |
| 2026-04-21 22:49 | 25.24578 | 55.38305 | 28 ft | 9 kts | 32° |
| 2026-04-21 22:49 | 25.24629 | 55.38325 | 28 ft | 5 kts | 349° |
| 2026-04-21 22:49 | 25.24654 | 55.38304 | 28 ft | 4 kts | 310° |
| 2026-04-21 22:50 | 25.24668 | 55.38278 | 28 ft | 4 kts | 297° |
| 2026-04-21 22:50 | 25.24680 | 55.38253 | 29 ft | 4 kts | 301° |
| 2026-04-21 22:50 | 25.24684 | 55.38247 | 29 ft | 0 kts | 301° |
| 2026-04-21 22:50 | 25.24687 | 55.38241 | 29 ft | 10 kts | 301° |
| 2026-04-21 22:51 | 25.24837 | 55.37970 | 31 ft | 71 kts | 301° |
| 2026-04-21 22:51 | 25.25192 | 55.37330 | 33 ft | 123 kts | 301° |
| 2026-04-21 22:51 | 25.25724 | 55.36373 | 32 ft | 168 kts | 301° |
| 2026-04-21 22:51 | 25.26343 | 55.35226 | 455 ft | 171 kts | 300° |
| 2026-04-21 22:52 | 25.26928 | 55.34068 | 857 ft | 183 kts | 300° |
| 2026-04-21 22:52 | 25.27575 | 55.32747 | 1046 ft | 200 kts | 299° |
| 2026-04-21 22:52 | 25.28320 | 55.31391 | 1215 ft | 213 kts | 304° |
| 2026-04-21 22:52 | 25.29048 | 55.29906 | 1312 ft | 229 kts | 287° |
| 2026-04-21 22:53 | 25.29005 | 55.28128 | 1475 ft | 239 kts | 249° |
| 2026-04-21 22:53 | 25.28358 | 55.26459 | 1862 ft | 241 kts | 242° |
| 2026-04-21 22:53 | 25.27615 | 55.24778 | 2233 ft | 245 kts | 243° |
| 2026-04-21 22:53 | 25.26870 | 55.23078 | 2647 ft | 246 kts | 243° |
| 2026-04-21 22:54 | 25.26130 | 55.21369 | 3102 ft | 246 kts | 243° |
| 2026-04-21 22:54 | 25.25396 | 55.19661 | 3561 ft | 245 kts | 243° |
| 2026-04-21 22:54 | 25.24550 | 55.18041 | 4001 ft | 244 kts | 229° |
| 2026-04-21 22:54 | 25.23204 | 55.16946 | 4377 ft | 242 kts | 198° |
| 2026-04-21 22:55 | 25.21528 | 55.16698 | 4680 ft | 246 kts | 177° |
| 2026-04-21 22:55 | 25.19828 | 55.16936 | 5069 ft | 249 kts | 164° |
| 2026-04-21 22:55 | 25.18303 | 55.17865 | 5355 ft | 257 kts | 137° |
| 2026-04-21 22:55 | 25.17231 | 55.19502 | 5537 ft | 271 kts | 120° |
| 2026-04-21 22:56 | 25.16344 | 55.21384 | 5771 ft | 281 kts | 118° |
| 2026-04-21 22:56 | 25.15455 | 55.23318 | 6125 ft | 285 kts | 118° |
| 2026-04-21 22:56 | 25.14537 | 55.25283 | 6531 ft | 288 kts | 119° |
| 2026-04-21 22:56 | 25.13608 | 55.27248 | 6950 ft | 290 kts | 119° |
| 2026-04-21 22:57 | 25.12987 | 55.28561 | 7253 ft | 291 kts | 120° |
| 2026-04-21 22:57 | 25.11729 | 55.31189 | 7811 ft | 294 kts | 120° |
| 2026-04-21 22:57 | 25.10766 | 55.33190 | 8245 ft | 296 kts | 120° |
| 2026-04-21 22:57 | 25.09778 | 55.35196 | 8668 ft | 299 kts | 122° |
| 2026-04-21 22:58 | 25.08743 | 55.37198 | 9096 ft | 301 kts | 123° |
| 2026-04-21 22:58 | 25.07673 | 55.39190 | 9556 ft | 303 kts | 124° |
| 2026-04-21 22:58 | 25.06583 | 55.41190 | 9963 ft | 305 kts | 124° |
| 2026-04-21 22:58 | 25.05477 | 55.43222 | 10228 ft | 314 kts | 124° |
| 2026-04-21 22:59 | 25.04333 | 55.45323 | 10385 ft | 325 kts | 124° |
| 2026-04-21 22:59 | 25.03553 | 55.46759 | 10510 ft | 333 kts | 124° |
| 2026-04-21 22:59 | 25.02346 | 55.48989 | 10689 ft | 344 kts | 123° |
| 2026-04-21 22:59 | 25.01106 | 55.51290 | 10879 ft | 354 kts | 123° |
| 2026-04-21 23:00 | 24.99834 | 55.53656 | 11042 ft | 364 kts | 123° |
| 2026-04-21 23:00 | 24.98534 | 55.56089 | 11211 ft | 373 kts | 122° |
| 2026-04-21 23:00 | 24.97196 | 55.58586 | 11369 ft | 383 kts | 122° |
| 2026-04-21 23:00 | 24.95822 | 55.61139 | 11543 ft | 391 kts | 122° |
| 2026-04-21 23:01 | 24.94423 | 55.63736 | 11796 ft | 396 kts | 122° |
| 2026-04-21 23:01 | 24.93010 | 55.66357 | 12127 ft | 399 kts | 122° |
| 2026-04-21 23:01 | 24.91590 | 55.68992 | 12460 ft | 402 kts | 122° |
| 2026-04-21 23:01 | 24.90158 | 55.71654 | 12774 ft | 405 kts | 122° |
| 2026-04-21 23:02 | 24.88715 | 55.74329 | 13086 ft | 408 kts | 122° |
| 2026-04-21 23:02 | 24.87259 | 55.77024 | 13419 ft | 410 kts | 122° |
| 2026-04-21 23:02 | 24.85792 | 55.79735 | 13723 ft | 413 kts | 122° |
| 2026-04-21 23:02 | 24.84319 | 55.82458 | 14024 ft | 415 kts | 122° |
| 2026-04-21 23:03 | 24.82857 | 55.85161 | 14342 ft | 417 kts | 122° |
| 2026-04-21 23:03 | 24.81354 | 55.87944 | 14676 ft | 418 kts | 122° |
| 2026-04-21 23:03 | 24.79878 | 55.90666 | 14993 ft | 420 kts | 122° |
| 2026-04-21 23:03 | 24.78301 | 55.93383 | 15249 ft | 422 kts | 129° |
| 2026-04-21 23:04 | 24.77682 | 55.94236 | 15389 ft | 421 kts | 131° |
| 2026-04-21 23:04 | 24.74315 | 55.98096 | 15950 ft | 422 kts | 138° |
| 2026-04-21 23:04 | 24.72151 | 56.00288 | 16262 ft | 423 kts | 140° |
| 2026-04-21 23:04 | 24.69955 | 56.02453 | 16584 ft | 425 kts | 140° |
| 2026-04-21 23:05 | 24.67749 | 56.04633 | 16872 ft | 428 kts | 139° |
| 2026-04-21 23:05 | 24.65545 | 56.06840 | 17179 ft | 429 kts | 139° |
| 2026-04-21 23:05 | 24.63346 | 56.09067 | 17512 ft | 431 kts | 138° |
| 2026-04-21 23:05 | 24.61143 | 56.11318 | 17810 ft | 433 kts | 138° |
| 2026-04-21 23:06 | 24.58939 | 56.13585 | 18113 ft | 435 kts | 138° |
| 2026-04-21 23:06 | 24.56816 | 56.15969 | 18380 ft | 437 kts | 134° |
| 2026-04-21 23:06 | 24.54771 | 56.18453 | 18607 ft | 440 kts | 133° |
| 2026-04-21 23:06 | 24.52754 | 56.20984 | 18876 ft | 441 kts | 132° |
| 2026-04-21 23:07 | 24.50748 | 56.23538 | 19135 ft | 443 kts | 132° |
| 2026-04-21 23:07 | 24.48734 | 56.26115 | 19383 ft | 444 kts | 132° |
| 2026-04-21 23:07 | 24.46718 | 56.28697 | 19616 ft | 446 kts | 132° |
| 2026-04-21 23:08 | 24.40696 | 56.36380 | 20353 ft | 449 kts | 133° |
| 2026-04-21 23:08 | 24.38646 | 56.38979 | 20552 ft | 451 kts | 133° |
| 2026-04-21 23:08 | 24.36587 | 56.41590 | 20782 ft | 453 kts | 133° |
| 2026-04-21 23:09 | 24.34523 | 56.44207 | 20990 ft | 455 kts | 133° |
| 2026-04-21 23:09 | 24.32444 | 56.46842 | 21199 ft | 457 kts | 133° |
| 2026-04-21 23:09 | 24.30360 | 56.49483 | 21411 ft | 458 kts | 133° |
| 2026-04-21 23:09 | 24.28301 | 56.52164 | 21623 ft | 461 kts | 130° |
| 2026-04-21 23:10 | 24.26366 | 56.54977 | 21842 ft | 463 kts | 128° |
| 2026-04-21 23:10 | 24.24498 | 56.57865 | 22058 ft | 466 kts | 127° |
| 2026-04-21 23:10 | 24.22644 | 56.60780 | 22287 ft | 467 kts | 127° |
| 2026-04-21 23:10 | 24.20779 | 56.63698 | 22496 ft | 469 kts | 127° |
| 2026-04-21 23:11 | 24.18913 | 56.66580 | 22698 ft | 470 kts | 128° |
| 2026-04-21 23:11 | 24.17003 | 56.69493 | 22894 ft | 472 kts | 128° |
| 2026-04-21 23:11 | 24.15075 | 56.72407 | 23115 ft | 473 kts | 128° |
| 2026-04-21 23:11 | 24.13134 | 56.75324 | 23315 ft | 475 kts | 128° |
| 2026-04-21 23:12 | 24.11177 | 56.78257 | 23508 ft | 477 kts | 128° |
| 2026-04-21 23:12 | 24.09217 | 56.81193 | 23676 ft | 478 kts | 128° |
| 2026-04-21 23:12 | 24.07255 | 56.84131 | 23874 ft | 479 kts | 128° |
| 2026-04-21 23:12 | 24.05290 | 56.87073 | 24045 ft | 479 kts | 128° |
| 2026-04-21 23:13 | 24.03322 | 56.90020 | 24251 ft | 480 kts | 128° |
| 2026-04-21 23:13 | 24.01352 | 56.92973 | 24417 ft | 481 kts | 128° |
| 2026-04-21 23:13 | 23.99376 | 56.95926 | 24580 ft | 482 kts | 128° |
| 2026-04-21 23:13 | 23.97393 | 56.98884 | 24763 ft | 483 kts | 128° |
| 2026-04-21 23:14 | 23.95406 | 57.01847 | 24936 ft | 484 kts | 128° |
| 2026-04-21 23:14 | 23.93411 | 57.04819 | 25109 ft | 485 kts | 128° |
| 2026-04-21 23:14 | 23.91416 | 57.07791 | 25282 ft | 486 kts | 128° |
| 2026-04-21 23:14 | 23.89444 | 57.10730 | 25461 ft | 487 kts | 128° |
| 2026-04-21 23:15 | 23.87443 | 57.13716 | 25651 ft | 487 kts | 128° |
| 2026-04-21 23:15 | 23.85438 | 57.16703 | 25830 ft | 488 kts | 128° |
| 2026-04-21 23:15 | 23.83430 | 57.19689 | 26035 ft | 488 kts | 128° |
| 2026-04-21 23:15 | 23.81415 | 57.22683 | 26221 ft | 490 kts | 128° |
| 2026-04-21 23:16 | 23.79394 | 57.25684 | 26394 ft | 491 kts | 128° |
| 2026-04-21 23:16 | 23.77371 | 57.28686 | 26565 ft | 492 kts | 128° |
| 2026-04-21 23:16 | 23.75339 | 57.31702 | 26750 ft | 493 kts | 128° |
| 2026-04-21 23:16 | 23.73304 | 57.34720 | 26939 ft | 494 kts | 128° |
| 2026-04-21 23:17 | 23.71263 | 57.37742 | 27119 ft | 495 kts | 129° |
| 2026-04-21 23:17 | 23.69165 | 57.40721 | 27310 ft | 495 kts | 130° |
| 2026-04-21 23:17 | 23.67012 | 57.43670 | 27492 ft | 496 kts | 131° |
| 2026-04-21 23:17 | 23.64838 | 57.46607 | 27649 ft | 498 kts | 131° |
| 2026-04-21 23:18 | 23.62658 | 57.49550 | 27833 ft | 499 kts | 131° |
| 2026-04-21 23:18 | 23.60477 | 57.52507 | 27996 ft | 501 kts | 130° |
| 2026-04-21 23:18 | 23.58300 | 57.55473 | 28192 ft | 502 kts | 130° |
| 2026-04-21 23:18 | 23.56120 | 57.58453 | 28359 ft | 503 kts | 130° |
| 2026-04-21 23:19 | 23.53936 | 57.61446 | 28530 ft | 504 kts | 130° |
| 2026-04-21 23:19 | 23.51779 | 57.64403 | 28693 ft | 505 kts | 130° |
| 2026-04-21 23:19 | 23.49591 | 57.67403 | 28875 ft | 507 kts | 131° |
| 2026-04-21 23:19 | 23.47396 | 57.70411 | 29023 ft | 508 kts | 131° |
| 2026-04-21 23:20 | 23.45189 | 57.73430 | 29169 ft | 509 kts | 131° |
| 2026-04-21 23:20 | 23.42978 | 57.76450 | 29317 ft | 511 kts | 130° |
| 2026-04-21 23:20 | 23.40759 | 57.79477 | 29495 ft | 512 kts | 131° |
| 2026-04-21 23:20 | 23.38535 | 57.82508 | 29623 ft | 513 kts | 131° |
| 2026-04-21 23:21 | 23.36305 | 57.85548 | 29783 ft | 514 kts | 131° |
| 2026-04-21 23:21 | 23.34069 | 57.88595 | 29924 ft | 516 kts | 131° |
| 2026-04-21 23:21 | 23.31824 | 57.91651 | 30055 ft | 517 kts | 131° |
| 2026-04-21 23:21 | 23.29578 | 57.94707 | 30178 ft | 517 kts | 131° |
| 2026-04-21 23:22 | 23.27332 | 57.97762 | 30376 ft | 517 kts | 131° |
| 2026-04-21 23:22 | 23.25081 | 58.00823 | 30479 ft | 518 kts | 130° |
| 2026-04-21 23:22 | 23.22861 | 58.03911 | 30608 ft | 519 kts | 128° |
| 2026-04-21 23:22 | 23.20771 | 58.07118 | 30799 ft | 520 kts | 126° |
| 2026-04-21 23:23 | 23.18753 | 58.10388 | 30947 ft | 520 kts | 125° |
| 2026-04-21 23:23 | 23.16758 | 58.13672 | 31111 ft | 521 kts | 125° |
| 2026-04-21 23:23 | 23.14778 | 58.16908 | 31247 ft | 521 kts | 125° |
| 2026-04-21 23:23 | 23.12734 | 58.20215 | 31431 ft | 521 kts | 126° |
| 2026-04-21 23:24 | 23.10726 | 58.23429 | 31614 ft | 520 kts | 126° |
| 2026-04-21 23:24 | 23.08680 | 58.26676 | 31796 ft | 520 kts | 126° |
| 2026-04-21 23:24 | 23.06632 | 58.29912 | 31950 ft | 520 kts | 126° |
| 2026-04-21 23:24 | 23.04564 | 58.33148 | 32111 ft | 520 kts | 127° |
| 2026-04-21 23:25 | 23.02259 | 58.36168 | 32244 ft | 519 kts | 136° |
| 2026-04-21 23:25 | 22.99582 | 58.38780 | 32387 ft | 517 kts | 145° |
| 2026-04-21 23:25 | 22.96632 | 58.40999 | 32540 ft | 516 kts | 149° |
| 2026-04-21 23:25 | 22.93609 | 58.43089 | 32696 ft | 515 kts | 150° |
| 2026-04-21 23:26 | 22.90546 | 58.45122 | 32877 ft | 515 kts | 151° |
| 2026-04-21 23:26 | 22.87476 | 58.47126 | 33027 ft | 515 kts | 151° |
| 2026-04-21 23:26 | 22.84441 | 58.49102 | 33258 ft | 514 kts | 151° |
| 2026-04-21 23:26 | 22.81386 | 58.51099 | 33479 ft | 513 kts | 151° |
| 2026-04-21 23:27 | 22.78327 | 58.53106 | 33597 ft | 514 kts | 150° |
| 2026-04-21 23:27 | 22.75271 | 58.55119 | 33713 ft | 514 kts | 150° |
| 2026-04-21 23:27 | 22.72207 | 58.57142 | 33865 ft | 515 kts | 150° |
| 2026-04-21 23:27 | 22.69151 | 58.59162 | 33988 ft | 515 kts | 150° |
| 2026-04-21 23:28 | 22.66087 | 58.61187 | 34114 ft | 516 kts | 150° |
| 2026-04-21 23:28 | 22.63024 | 58.63215 | 34229 ft | 516 kts | 150° |
| 2026-04-21 23:28 | 22.59956 | 58.65242 | 34343 ft | 516 kts | 150° |
| 2026-04-21 23:28 | 22.56884 | 58.67267 | 34445 ft | 517 kts | 150° |
| 2026-04-21 23:29 | 22.53812 | 58.69291 | 34576 ft | 517 kts | 150° |
| 2026-04-21 23:29 | 22.50743 | 58.71313 | 34674 ft | 517 kts | 150° |
| 2026-04-21 23:29 | 22.47661 | 58.73342 | 34777 ft | 518 kts | 150° |
| 2026-04-21 23:29 | 22.44582 | 58.75368 | 34901 ft | 518 kts | 150° |
| 2026-04-21 23:30 | 22.38459 | 58.79396 | 35105 ft | 519 kts | 150° |
| 2026-04-21 23:30 | 22.35370 | 58.81426 | 35209 ft | 519 kts | 150° |
| 2026-04-21 23:30 | 22.32283 | 58.83454 | 35305 ft | 520 kts | 150° |
| 2026-04-21 23:31 | 22.29196 | 58.85481 | 35414 ft | 520 kts | 150° |
| 2026-04-21 23:31 | 22.26104 | 58.87510 | 35511 ft | 520 kts | 150° |
| 2026-04-21 23:31 | 22.19908 | 58.91579 | 35687 ft | 521 kts | 150° |
| 2026-04-21 23:32 | 22.16808 | 58.93611 | 35789 ft | 522 kts | 151° |
| 2026-04-21 23:32 | 22.13702 | 58.95644 | 35888 ft | 522 kts | 151° |
| 2026-04-21 23:32 | 22.07486 | 58.99707 | 36073 ft | 523 kts | 151° |
| 2026-04-21 23:33 | 22.04364 | 59.01747 | 36176 ft | 523 kts | 151° |
| 2026-04-21 23:33 | 22.01249 | 59.03783 | 36279 ft | 523 kts | 150° |
| 2026-04-21 23:33 | 21.94999 | 59.07863 | 36390 ft | 525 kts | 150° |
| 2026-04-21 23:34 | 21.91918 | 59.09874 | 36493 ft | 525 kts | 150° |
| 2026-04-21 23:34 | 21.88788 | 59.11916 | 36577 ft | 526 kts | 150° |
| 2026-04-21 23:34 | 21.82529 | 59.15995 | 36722 ft | 526 kts | 150° |
| 2026-04-21 23:35 | 21.76266 | 59.20073 | 36853 ft | 528 kts | 150° |
| 2026-04-21 23:35 | 21.69956 | 59.24175 | 36854 ft | 532 kts | 150° |
| 2026-04-21 23:36 | 21.63617 | 59.28294 | 36845 ft | 532 kts | 150° |